sensor_id;sensor_type;location;lat;lon;timestamp;temperature;humidity
20833;DHT22;56075;51.264;7.150;2023-02-28T03:05:27;-0.80;99.90
20833;DHT22;56075;51.264;7.150;2023-02-28T10:17:17;4.20;99.90
20833;DHT22;56075;51.264;7.150;2023-02-28T10:27:34;4.10;99.90
20833;DHT22;56075;51.264;7.150;2023-02-28T10:45:35;4.50;99.90
20833;DHT22;56075;51.264;7.150;2023-02-28T11:30:30;4.70;99.90
20833;DHT22;56075;51.264;7.150;2023-02-28T11:33:22;4.70;99.90
20833;DHT22;56075;51.264;7.150;2023-02-28T12:08:44;5.90;99.90
20833;DHT22;56075;51.264;7.150;2023-02-28T12:40:59;5.60;99.90
20833;DHT22;56075;51.264;7.150;2023-02-28T13:45:29;6.20;99.90
20833;DHT22;56075;51.264;7.150;2023-02-28T13:53:53;6.30;99.90
20833;DHT22;56075;51.264;7.150;2023-02-28T14:02:37;6.70;99.90
20833;DHT22;56075;51.264;7.150;2023-02-28T14:05:19;6.80;99.90
20833;DHT22;56075;51.264;7.150;2023-02-28T14:07:58;7.00;99.90
20833;DHT22;56075;51.264;7.150;2023-02-28T14:10:33;7.00;99.90
20833;DHT22;56075;51.264;7.150;2023-02-28T14:16:20;7.60;99.90
20833;DHT22;56075;51.264;7.150;2023-02-28T14:18:58;8.20;99.90
20833;DHT22;56075;51.264;7.150;2023-02-28T14:21:34;8.60;99.90
20833;DHT22;56075;51.264;7.150;2023-02-28T14:24:15;9.20;99.90
20833;DHT22;56075;51.264;7.150;2023-02-28T14:27:16;10.20;99.00
20833;DHT22;56075;51.264;7.150;2023-02-28T14:32:30;11.50;99.40
20833;DHT22;56075;51.264;7.150;2023-02-28T14:35:21;11.30;98.50
20833;DHT22;56075;51.264;7.150;2023-02-28T14:37:57;11.80;97.70
20833;DHT22;56075;51.264;7.150;2023-02-28T14:40:31;14.00;98.00
20833;DHT22;56075;51.264;7.150;2023-02-28T14:43:05;12.50;97.10
20833;DHT22;56075;51.264;7.150;2023-02-28T14:45:36;13.20;97.10
20833;DHT22;56075;51.264;7.150;2023-02-28T14:48:11;13.10;96.00
20833;DHT22;56075;51.264;7.150;2023-02-28T14:50:49;14.80;96.00
20833;DHT22;56075;51.264;7.150;2023-02-28T14:53:24;13.40;95.10
20833;DHT22;56075;51.264;7.150;2023-02-28T14:55:56;13.50;95.60
20833;DHT22;56075;51.264;7.150;2023-02-28T14:58:31;14.40;87.40
20833;DHT22;56075;51.264;7.150;2023-02-28T15:01:03;13.60;90.20
20833;DHT22;56075;51.264;7.150;2023-02-28T15:03:37;13.70;90.90
20833;DHT22;56075;51.264;7.150;2023-02-28T15:06:15;15.70;91.80
20833;DHT22;56075;51.264;7.150;2023-02-28T15:08:48;13.90;91.80
20833;DHT22;56075;51.264;7.150;2023-02-28T15:11:38;14.60;91.50
20833;DHT22;56075;51.264;7.150;2023-02-28T15:14:17;14.00;91.30
20833;DHT22;56075;51.264;7.150;2023-02-28T15:16:54;14.40;91.60
20833;DHT22;56075;51.264;7.150;2023-02-28T15:19:34;15.70;91.90
20833;DHT22;56075;51.264;7.150;2023-02-28T15:22:12;15.00;91.50
20833;DHT22;56075;51.264;7.150;2023-02-28T15:24:50;14.80;91.40
20833;DHT22;56075;51.264;7.150;2023-02-28T15:27:27;14.80;91.40
20833;DHT22;56075;51.264;7.150;2023-02-28T15:30:04;13.80;91.00
20833;DHT22;56075;51.264;7.150;2023-02-28T15:32:37;13.60;91.10
20833;DHT22;56075;51.264;7.150;2023-02-28T15:35:29;13.70;91.30
20833;DHT22;56075;51.264;7.150;2023-02-28T15:38:12;14.10;91.40
20833;DHT22;56075;51.264;7.150;2023-02-28T15:40:51;13.30;91.50
20833;DHT22;56075;51.264;7.150;2023-02-28T15:43:29;13.20;91.70
20833;DHT22;56075;51.264;7.150;2023-02-28T15:48:55;13.30;91.70
20833;DHT22;56075;51.264;7.150;2023-02-28T15:51:36;13.30;91.30
20833;DHT22;56075;51.264;7.150;2023-02-28T15:54:12;13.80;91.60
20833;DHT22;56075;51.264;7.150;2023-02-28T15:56:47;12.80;91.30
20833;DHT22;56075;51.264;7.150;2023-02-28T15:59:23;12.70;91.70
20833;DHT22;56075;51.264;7.150;2023-02-28T16:02:17;13.30;91.80
20833;DHT22;56075;51.264;7.150;2023-02-28T16:05:00;12.50;91.60
20833;DHT22;56075;51.264;7.150;2023-02-28T16:07:32;14.10;92.50
20833;DHT22;56075;51.264;7.150;2023-02-28T16:10:06;11.90;92.10
20833;DHT22;56075;51.264;7.150;2023-02-28T16:12:39;11.80;92.40
20833;DHT22;56075;51.264;7.150;2023-02-28T16:15:28;11.40;93.40
20833;DHT22;56075;51.264;7.150;2023-02-28T16:17:59;11.40;92.20
20833;DHT22;56075;51.264;7.150;2023-02-28T16:20:31;11.00;92.90
20833;DHT22;56075;51.264;7.150;2023-02-28T16:23:02;10.80;93.10
20833;DHT22;56075;51.264;7.150;2023-02-28T16:25:39;10.50;92.90
20833;DHT22;56075;51.264;7.150;2023-02-28T16:28:20;10.20;93.50
20833;DHT22;56075;51.264;7.150;2023-02-28T16:53:44;6.90;96.80
